sensor_id;sensor_type;location;lat;lon;timestamp;pressure;altitude;pressure_sealevel;temperature;humidity
73518;BME280;61766;60.318;25.044;2024-01-27T00:00:39;121735.40;;;-216.90;0.00
73518;BME280;61766;60.318;25.044;2024-01-27T00:03:05;121735.40;;;-217.14;0.00
73518;BME280;61766;60.318;25.044;2024-01-27T00:05:30;121735.40;;;-216.90;0.00
73518;BME280;61766;60.318;25.044;2024-01-27T00:07:56;121735.40;;;-216.66;0.00
73518;BME280;61766;60.318;25.044;2024-01-27T00:10:21;121735.40;;;-216.66;0.00
73518;BME280;61766;60.318;25.044;2024-01-27T00:12:46;121735.40;;;-217.14;0.00
73518;BME280;61766;60.318;25.044;2024-01-27T00:15:11;121735.40;;;-216.66;0.00
73518;BME280;61766;60.318;25.044;2024-01-27T00:17:36;121735.40;;;-216.66;0.00
73518;BME280;61766;60.318;25.044;2024-01-27T00:20:02;121735.40;;;-216.18;0.00
73518;BME280;61766;60.318;25.044;2024-01-27T00:22:27;121735.40;;;-216.42;0.00
73518;BME280;61766;60.318;25.044;2024-01-27T00:24:52;121735.40;;;-216.66;0.00
73518;BME280;61766;60.318;25.044;2024-01-27T00:27:18;121735.40;;;-216.90;0.00
73518;BME280;61766;60.318;25.044;2024-01-27T00:29:43;121735.40;;;-216.66;0.00
73518;BME280;61766;60.318;25.044;2024-01-27T00:32:09;121735.40;;;-216.66;0.00
73518;BME280;61766;60.318;25.044;2024-01-27T00:34:34;121735.40;;;-216.66;0.00
73518;BME280;61766;60.318;25.044;2024-01-27T00:37:00;121735.40;;;-216.66;0.00
73518;BME280;61766;60.318;25.044;2024-01-27T00:39:25;121735.40;;;-216.90;0.00
73518;BME280;61766;60.318;25.044;2024-01-27T00:41:51;121735.40;;;-216.90;0.00
73518;BME280;61766;60.318;25.044;2024-01-27T00:44:16;121735.40;;;-216.66;0.00
73518;BME280;61766;60.318;25.044;2024-01-27T00:46:41;121735.40;;;-216.66;0.00
73518;BME280;61766;60.318;25.044;2024-01-27T00:49:07;121735.40;;;-217.14;0.00
73518;BME280;61766;60.318;25.044;2024-01-27T00:51:32;121735.40;;;-217.37;0.00
73518;BME280;61766;60.318;25.044;2024-01-27T00:53:57;121735.40;;;-217.61;0.00
73518;BME280;61766;60.318;25.044;2024-01-27T00:56:22;121735.40;;;-217.61;0.00
73518;BME280;61766;60.318;25.044;2024-01-27T00:58:47;121735.40;;;-217.37;0.00
73518;BME280;61766;60.318;25.044;2024-01-27T01:01:13;121735.40;;;-217.14;0.00
73518;BME280;61766;60.318;25.044;2024-01-27T01:03:39;121735.40;;;-217.61;0.00
73518;BME280;61766;60.318;25.044;2024-01-27T01:06:04;121735.40;;;-217.61;0.00
73518;BME280;61766;60.318;25.044;2024-01-27T01:08:30;121735.40;;;-217.37;0.00
73518;BME280;61766;60.318;25.044;2024-01-27T01:10:55;121735.40;;;-217.61;0.00
73518;BME280;61766;60.318;25.044;2024-01-27T01:13:20;121735.40;;;-217.61;0.00
73518;BME280;61766;60.318;25.044;2024-01-27T01:15:45;121735.40;;;-217.61;0.00
73518;BME280;61766;60.318;25.044;2024-01-27T01:18:11;121735.40;;;-217.85;0.00
73518;BME280;61766;60.318;25.044;2024-01-27T01:20:36;121735.40;;;-217.85;0.00
73518;BME280;61766;60.318;25.044;2024-01-27T01:23:01;121735.40;;;-218.09;0.00
73518;BME280;61766;60.318;25.044;2024-01-27T01:25:27;121735.40;;;-217.37;0.00
73518;BME280;61766;60.318;25.044;2024-01-27T01:27:52;121735.40;;;-217.14;0.00
73518;BME280;61766;60.318;25.044;2024-01-27T01:30:17;121735.40;;;-217.14;0.00
73518;BME280;61766;60.318;25.044;2024-01-27T01:32:42;121735.40;;;-217.37;0.00
73518;BME280;61766;60.318;25.044;2024-01-27T01:35:08;121735.40;;;-217.61;0.00
73518;BME280;61766;60.318;25.044;2024-01-27T01:37:32;121735.40;;;-217.61;0.00
73518;BME280;61766;60.318;25.044;2024-01-27T01:39:58;121735.40;;;-217.61;0.00
73518;BME280;61766;60.318;25.044;2024-01-27T01:42:23;121735.40;;;-217.61;0.00
73518;BME280;61766;60.318;25.044;2024-01-27T01:44:49;121735.40;;;-217.61;0.00
73518;BME280;61766;60.318;25.044;2024-01-27T01:47:14;121735.40;;;-217.61;0.00
73518;BME280;61766;60.318;25.044;2024-01-27T01:49:40;121735.40;;;-217.61;0.00
73518;BME280;61766;60.318;25.044;2024-01-27T01:52:05;121735.40;;;-217.61;0.00
73518;BME280;61766;60.318;25.044;2024-01-27T01:54:30;121735.40;;;-217.85;0.00
73518;BME280;61766;60.318;25.044;2024-01-27T01:56:57;121735.40;;;-218.09;0.00
73518;BME280;61766;60.318;25.044;2024-01-27T01:59:21;121735.40;;;-218.09;0.00
73518;BME280;61766;60.318;25.044;2024-01-27T02:01:47;121735.40;;;-217.85;0.00
73518;BME280;61766;60.318;25.044;2024-01-27T02:04:12;121735.40;;;-218.09;0.00
73518;BME280;61766;60.318;25.044;2024-01-27T02:06:38;121735.40;;;-217.61;0.00
73518;BME280;61766;60.318;25.044;2024-01-27T02:09:03;121735.40;;;-217.85;0.00
73518;BME280;61766;60.318;25.044;2024-01-27T02:11:29;121735.40;;;-217.61;0.00
73518;BME280;61766;60.318;25.044;2024-01-27T02:13:54;121735.40;;;-217.61;0.00
73518;BME280;61766;60.318;25.044;2024-01-27T02:16:19;121735.40;;;-217.85;0.00
73518;BME280;61766;60.318;25.044;2024-01-27T02:18:47;121735.40;;;-218.09;0.00
73518;BME280;61766;60.318;25.044;2024-01-27T02:21:11;121735.40;;;-218.09;0.00
73518;BME280;61766;60.318;25.044;2024-01-27T02:23:36;121735.40;;;-217.85;0.00
73518;BME280;61766;60.318;25.044;2024-01-27T02:26:01;121735.40;;;-218.09;0.00
73518;BME280;61766;60.318;25.044;2024-01-27T02:28:27;121735.40;;;-217.85;0.00
73518;BME280;61766;60.318;25.044;2024-01-27T02:30:52;121735.40;;;-218.09;0.00
73518;BME280;61766;60.318;25.044;2024-01-27T02:33:17;121735.40;;;-218.33;0.00
73518;BME280;61766;60.318;25.044;2024-01-27T02:35:42;121735.40;;;-218.33;0.00
73518;BME280;61766;60.318;25.044;2024-01-27T02:38:07;121735.40;;;-218.09;0.00
73518;BME280;61766;60.318;25.044;2024-01-27T02:40:33;121735.40;;;-218.09;0.00
73518;BME280;61766;60.318;25.044;2024-01-27T02:42:59;121735.40;;;-218.09;0.00
73518;BME280;61766;60.318;25.044;2024-01-27T02:45:24;121735.40;;;-218.09;0.00
73518;BME280;61766;60.318;25.044;2024-01-27T02:47:49;121735.40;;;-217.14;0.00
73518;BME280;61766;60.318;25.044;2024-01-27T02:50:15;121735.40;;;-216.90;0.00
73518;BME280;61766;60.318;25.044;2024-01-27T02:52:40;121735.40;;;-217.14;0.00
73518;BME280;61766;60.318;25.044;2024-01-27T02:55:06;121735.40;;;-217.14;0.00
73518;BME280;61766;60.318;25.044;2024-01-27T02:57:31;121735.40;;;-217.37;0.00
73518;BME280;61766;60.318;25.044;2024-01-27T02:59:56;121735.40;;;-217.61;0.00
73518;BME280;61766;60.318;25.044;2024-01-27T03:02:21;121735.40;;;-217.37;0.00
73518;BME280;61766;60.318;25.044;2024-01-27T03:04:46;121735.40;;;-217.61;0.00
73518;BME280;61766;60.318;25.044;2024-01-27T03:07:12;121735.40;;;-217.14;0.00
73518;BME280;61766;60.318;25.044;2024-01-27T03:09:37;121735.40;;;-217.14;0.00
73518;BME280;61766;60.318;25.044;2024-01-27T03:12:03;121735.40;;;-216.90;0.00
73518;BME280;61766;60.318;25.044;2024-01-27T03:14:28;121735.40;;;-216.90;0.00
73518;BME280;61766;60.318;25.044;2024-01-27T03:16:53;121735.40;;;-216.66;0.00
73518;BME280;61766;60.318;25.044;2024-01-27T03:19:19;121735.40;;;-217.14;0.00
73518;BME280;61766;60.318;25.044;2024-01-27T03:21:45;121735.40;;;-217.14;0.00
73518;BME280;61766;60.318;25.044;2024-01-27T03:24:09;121735.40;;;-217.14;0.00
73518;BME280;61766;60.318;25.044;2024-01-27T03:26:34;121735.40;;;-217.37;0.00
73518;BME280;61766;60.318;25.044;2024-01-27T03:29:00;121735.40;;;-217.61;0.00
73518;BME280;61766;60.318;25.044;2024-01-27T03:31:29;121735.40;;;-217.37;0.00
73518;BME280;61766;60.318;25.044;2024-01-27T03:33:50;121735.40;;;-217.61;0.00
73518;BME280;61766;60.318;25.044;2024-01-27T03:36:16;121735.40;;;-218.09;0.00
73518;BME280;61766;60.318;25.044;2024-01-27T03:38:42;121735.40;;;-217.85;0.00
73518;BME280;61766;60.318;25.044;2024-01-27T03:41:07;121735.40;;;-218.09;0.00
73518;BME280;61766;60.318;25.044;2024-01-27T03:43:33;121735.40;;;-218.09;0.00
73518;BME280;61766;60.318;25.044;2024-01-27T03:45:58;121735.40;;;-218.09;0.00
73518;BME280;61766;60.318;25.044;2024-01-27T03:48:23;121735.40;;;-218.09;0.00
73518;BME280;61766;60.318;25.044;2024-01-27T03:50:48;121735.40;;;-218.09;0.00
73518;BME280;61766;60.318;25.044;2024-01-27T03:53:14;121735.40;;;-217.61;0.00
73518;BME280;61766;60.318;25.044;2024-01-27T03:55:39;121735.40;;;-218.09;0.00
73518;BME280;61766;60.318;25.044;2024-01-27T03:58:04;121735.40;;;-217.85;0.00
73518;BME280;61766;60.318;25.044;2024-01-27T04:00:30;121735.40;;;-217.61;0.00
73518;BME280;61766;60.318;25.044;2024-01-27T04:02:55;121735.40;;;-217.61;0.00
73518;BME280;61766;60.318;25.044;2024-01-27T04:05:20;121735.40;;;-217.37;0.00
73518;BME280;61766;60.318;25.044;2024-01-27T04:07:46;121735.40;;;-217.61;0.00
73518;BME280;61766;60.318;25.044;2024-01-27T04:10:11;121735.40;;;-217.85;0.00
73518;BME280;61766;60.318;25.044;2024-01-27T04:12:36;121735.40;;;-217.61;0.00
73518;BME280;61766;60.318;25.044;2024-01-27T04:15:02;121735.40;;;-217.85;0.00
73518;BME280;61766;60.318;25.044;2024-01-27T04:17:28;121735.40;;;-217.85;0.00
73518;BME280;61766;60.318;25.044;2024-01-27T04:19:53;121735.40;;;-218.09;0.00
73518;BME280;61766;60.318;25.044;2024-01-27T04:22:18;121735.40;;;-218.33;0.00
73518;BME280;61766;60.318;25.044;2024-01-27T04:24:44;121735.40;;;-218.33;0.00
73518;BME280;61766;60.318;25.044;2024-01-27T04:27:09;121735.40;;;-218.09;0.00
73518;BME280;61766;60.318;25.044;2024-01-27T04:29:35;121735.40;;;-218.09;0.00
73518;BME280;61766;60.318;25.044;2024-01-27T04:32:00;121735.40;;;-218.09;0.00
73518;BME280;61766;60.318;25.044;2024-01-27T04:34:26;121735.40;;;-218.33;0.00
73518;BME280;61766;60.318;25.044;2024-01-27T04:36:51;121735.40;;;-218.09;0.00
73518;BME280;61766;60.318;25.044;2024-01-27T04:39:16;121735.40;;;-218.09;0.00
73518;BME280;61766;60.318;25.044;2024-01-27T04:41:44;121735.40;;;-218.09;0.00
73518;BME280;61766;60.318;25.044;2024-01-27T04:44:07;121735.40;;;-218.09;0.00
73518;BME280;61766;60.318;25.044;2024-01-27T04:46:32;121735.40;;;-218.57;0.00
73518;BME280;61766;60.318;25.044;2024-01-27T04:48:58;121735.40;;;-218.33;0.00
73518;BME280;61766;60.318;25.044;2024-01-27T04:51:23;121735.40;;;-218.57;0.00
73518;BME280;61766;60.318;25.044;2024-01-27T04:53:50;121735.40;;;-218.57;0.00
73518;BME280;61766;60.318;25.044;2024-01-27T04:56:14;121735.40;;;-218.57;0.00
73518;BME280;61766;60.318;25.044;2024-01-27T04:58:39;121735.40;;;-218.33;0.00
73518;BME280;61766;60.318;25.044;2024-01-27T05:01:05;121735.40;;;-218.33;0.00
73518;BME280;61766;60.318;25.044;2024-01-27T05:03:30;121735.40;;;-218.57;0.00
73518;BME280;61766;60.318;25.044;2024-01-27T05:05:56;121735.40;;;-218.33;0.00
73518;BME280;61766;60.318;25.044;2024-01-27T05:08:21;121735.40;;;-218.33;0.00
73518;BME280;61766;60.318;25.044;2024-01-27T05:10:46;121735.40;;;-218.57;0.00
73518;BME280;61766;60.318;25.044;2024-01-27T05:13:11;121735.40;;;-218.81;0.00
73518;BME280;61766;60.318;25.044;2024-01-27T05:15:37;121735.40;;;-218.81;0.00
73518;BME280;61766;60.318;25.044;2024-01-27T05:18:02;121735.40;;;-218.57;0.00
73518;BME280;61766;60.318;25.044;2024-01-27T05:20:27;121735.40;;;-219.05;0.00
73518;BME280;61766;60.318;25.044;2024-01-27T05:22:53;121735.40;;;-219.05;0.00
73518;BME280;61766;60.318;25.044;2024-01-27T05:25:18;121735.40;;;-219.05;0.00
73518;BME280;61766;60.318;25.044;2024-01-27T05:27:43;121735.40;;;-219.05;0.00
73518;BME280;61766;60.318;25.044;2024-01-27T05:30:10;121735.40;;;-219.05;0.00
73518;BME280;61766;60.318;25.044;2024-01-27T05:32:34;121735.40;;;-219.29;0.00
73518;BME280;61766;60.318;25.044;2024-01-27T05:34:59;121735.40;;;-219.05;0.00
73518;BME280;61766;60.318;25.044;2024-01-27T05:37:24;121735.40;;;-219.05;0.00
73518;BME280;61766;60.318;25.044;2024-01-27T05:39:50;121735.40;;;-219.53;0.00
73518;BME280;61766;60.318;25.044;2024-01-27T05:42:15;121735.40;;;-219.29;0.00
73518;BME280;61766;60.318;25.044;2024-01-27T05:44:40;121735.40;;;-219.29;0.00
73518;BME280;61766;60.318;25.044;2024-01-27T05:47:06;121735.40;;;-219.29;0.00
73518;BME280;61766;60.318;25.044;2024-01-27T05:49:31;121735.40;;;-219.29;0.00
73518;BME280;61766;60.318;25.044;2024-01-27T05:51:56;121735.40;;;-219.53;0.00
73518;BME280;61766;60.318;25.044;2024-01-27T05:54:22;121735.40;;;-219.53;0.00
73518;BME280;61766;60.318;25.044;2024-01-27T05:56:47;121735.40;;;-219.53;0.00
73518;BME280;61766;60.318;25.044;2024-01-27T05:59:13;121735.40;;;-219.77;0.00
73518;BME280;61766;60.318;25.044;2024-01-27T06:01:38;121735.40;;;-219.53;0.00
73518;BME280;61766;60.318;25.044;2024-01-27T06:04:04;121735.40;;;-219.53;0.00
73518;BME280;61766;60.318;25.044;2024-01-27T06:06:30;121735.40;;;-219.53;0.00
73518;BME280;61766;60.318;25.044;2024-01-27T06:08:54;121735.40;;;-219.53;0.00
73518;BME280;61766;60.318;25.044;2024-01-27T06:11:25;121735.40;;;-219.05;0.00
73518;BME280;61766;60.318;25.044;2024-01-27T06:13:46;121735.40;;;-219.05;0.00
73518;BME280;61766;60.318;25.044;2024-01-27T06:16:11;121735.40;;;-219.53;0.00
73518;BME280;61766;60.318;25.044;2024-01-27T06:18:36;121735.40;;;-219.29;0.00
73518;BME280;61766;60.318;25.044;2024-01-27T06:21:02;121735.40;;;-219.53;0.00
73518;BME280;61766;60.318;25.044;2024-01-27T06:23:27;121735.40;;;-219.29;0.00
73518;BME280;61766;60.318;25.044;2024-01-27T06:25:53;121735.40;;;-219.29;0.00
73518;BME280;61766;60.318;25.044;2024-01-27T06:28:18;121735.40;;;-219.29;0.00
73518;BME280;61766;60.318;25.044;2024-01-27T06:30:43;121735.40;;;-219.29;0.00
73518;BME280;61766;60.318;25.044;2024-01-27T06:33:09;121735.40;;;-219.05;0.00
73518;BME280;61766;60.318;25.044;2024-01-27T06:35:34;121735.40;;;-219.53;0.00
73518;BME280;61766;60.318;25.044;2024-01-27T06:38:00;121735.40;;;-219.05;0.00
73518;BME280;61766;60.318;25.044;2024-01-27T06:40:25;121735.40;;;-219.29;0.00
73518;BME280;61766;60.318;25.044;2024-01-27T06:42:50;121735.40;;;-219.05;0.00
73518;BME280;61766;60.318;25.044;2024-01-27T06:45:16;121735.40;;;-219.05;0.00
73518;BME280;61766;60.318;25.044;2024-01-27T06:47:41;121735.40;;;-218.81;0.00
73518;BME280;61766;60.318;25.044;2024-01-27T06:50:07;121735.40;;;-218.57;0.00
73518;BME280;61766;60.318;25.044;2024-01-27T06:52:32;121735.40;;;-218.57;0.00
73518;BME280;61766;60.318;25.044;2024-01-27T06:54:58;121735.40;;;-218.33;0.00
73518;BME280;61766;60.318;25.044;2024-01-27T06:57:23;121735.40;;;-218.57;0.00
73518;BME280;61766;60.318;25.044;2024-01-27T06:59:50;121735.40;;;-218.57;0.00
73518;BME280;61766;60.318;25.044;2024-01-27T07:02:14;121735.40;;;-218.57;0.00
73518;BME280;61766;60.318;25.044;2024-01-27T07:04:39;121735.40;;;-218.57;0.00
73518;BME280;61766;60.318;25.044;2024-01-27T07:07:05;121735.40;;;-218.09;0.00
73518;BME280;61766;60.318;25.044;2024-01-27T07:09:30;121735.40;;;-217.61;0.00
73518;BME280;61766;60.318;25.044;2024-01-27T07:11:55;121735.40;;;-217.85;0.00
73518;BME280;61766;60.318;25.044;2024-01-27T07:14:21;121735.40;;;-218.09;0.00
73518;BME280;61766;60.318;25.044;2024-01-27T07:16:46;121735.40;;;-218.33;0.00
73518;BME280;61766;60.318;25.044;2024-01-27T07:19:11;121735.40;;;-218.09;0.00
73518;BME280;61766;60.318;25.044;2024-01-27T07:21:37;121735.40;;;-218.09;0.00
73518;BME280;61766;60.318;25.044;2024-01-27T07:24:02;121735.40;;;-218.33;0.00
73518;BME280;61766;60.318;25.044;2024-01-27T07:26:28;121735.40;;;-218.09;0.00
73518;BME280;61766;60.318;25.044;2024-01-27T07:28:53;121735.40;;;-218.09;0.00
73518;BME280;61766;60.318;25.044;2024-01-27T07:31:19;121735.40;;;-218.57;0.00
73518;BME280;61766;60.318;25.044;2024-01-27T07:33:44;121735.40;;;-218.81;0.00
73518;BME280;61766;60.318;25.044;2024-01-27T07:36:10;121735.40;;;-218.81;0.00
73518;BME280;61766;60.318;25.044;2024-01-27T07:38:35;121735.40;;;-218.57;0.00
73518;BME280;61766;60.318;25.044;2024-01-27T07:41:00;121735.40;;;-218.57;0.00
73518;BME280;61766;60.318;25.044;2024-01-27T07:43:28;121735.40;;;-218.57;0.00
73518;BME280;61766;60.318;25.044;2024-01-27T07:45:51;121735.40;;;-218.57;0.00
73518;BME280;61766;60.318;25.044;2024-01-27T07:48:16;121735.40;;;-218.57;0.00
73518;BME280;61766;60.318;25.044;2024-01-27T07:50:42;121735.40;;;-218.33;0.00
73518;BME280;61766;60.318;25.044;2024-01-27T07:53:07;121735.40;;;-218.09;0.00
73518;BME280;61766;60.318;25.044;2024-01-27T07:55:32;121735.40;;;-218.57;0.00
73518;BME280;61766;60.318;25.044;2024-01-27T07:57:58;121735.40;;;-218.81;0.00
73518;BME280;61766;60.318;25.044;2024-01-27T08:00:23;121735.40;;;-218.57;0.00
73518;BME280;61766;60.318;25.044;2024-01-27T08:02:48;121735.40;;;-218.57;0.00
73518;BME280;61766;60.318;25.044;2024-01-27T08:05:13;121735.40;;;-218.57;0.00
73518;BME280;61766;60.318;25.044;2024-01-27T08:07:38;121735.40;;;-218.57;0.00
73518;BME280;61766;60.318;25.044;2024-01-27T08:10:04;121735.40;;;-218.57;0.00
73518;BME280;61766;60.318;25.044;2024-01-27T08:12:29;121735.40;;;-218.57;0.00
73518;BME280;61766;60.318;25.044;2024-01-27T08:14:54;121735.40;;;-218.81;0.00
73518;BME280;61766;60.318;25.044;2024-01-27T08:17:20;121735.40;;;-218.57;0.00
73518;BME280;61766;60.318;25.044;2024-01-27T08:19:45;121735.40;;;-218.81;0.00
73518;BME280;61766;60.318;25.044;2024-01-27T08:22:11;121735.40;;;-218.81;0.00
73518;BME280;61766;60.318;25.044;2024-01-27T08:24:37;121735.40;;;-219.05;0.00
73518;BME280;61766;60.318;25.044;2024-01-27T08:27:02;121735.40;;;-218.33;0.00
73518;BME280;61766;60.318;25.044;2024-01-27T08:29:27;121735.40;;;-218.57;0.00
73518;BME280;61766;60.318;25.044;2024-01-27T08:31:53;121735.40;;;-218.57;0.00
73518;BME280;61766;60.318;25.044;2024-01-27T08:34:18;121735.40;;;-218.57;0.00
73518;BME280;61766;60.318;25.044;2024-01-27T08:36:44;121735.40;;;-218.81;0.00
73518;BME280;61766;60.318;25.044;2024-01-27T08:39:09;121735.40;;;-219.05;0.00
73518;BME280;61766;60.318;25.044;2024-01-27T08:41:35;121735.40;;;-219.05;0.00
73518;BME280;61766;60.318;25.044;2024-01-27T08:44:00;121735.40;;;-219.05;0.00
73518;BME280;61766;60.318;25.044;2024-01-27T08:46:25;121735.40;;;-219.05;0.00
73518;BME280;61766;60.318;25.044;2024-01-27T08:48:50;121735.40;;;-219.05;0.00
73518;BME280;61766;60.318;25.044;2024-01-27T08:51:16;121735.40;;;-219.29;0.00
73518;BME280;61766;60.318;25.044;2024-01-27T08:53:41;121735.40;;;-219.05;0.00
73518;BME280;61766;60.318;25.044;2024-01-27T08:56:07;121735.40;;;-219.53;0.00
73518;BME280;61766;60.318;25.044;2024-01-27T08:58:32;121735.40;;;-219.29;0.00
73518;BME280;61766;60.318;25.044;2024-01-27T09:00:57;121735.40;;;-219.05;0.00
73518;BME280;61766;60.318;25.044;2024-01-27T09:03:23;121735.40;;;-218.81;0.00
73518;BME280;61766;60.318;25.044;2024-01-27T09:05:48;121735.40;;;-218.81;0.00
73518;BME280;61766;60.318;25.044;2024-01-27T09:08:13;121735.40;;;-219.05;0.00
73518;BME280;61766;60.318;25.044;2024-01-27T09:10:38;121735.40;;;-218.57;0.00
73518;BME280;61766;60.318;25.044;2024-01-27T09:13:04;121735.40;;;-219.05;0.00
73518;BME280;61766;60.318;25.044;2024-01-27T09:15:29;121735.40;;;-218.57;0.00
73518;BME280;61766;60.318;25.044;2024-01-27T09:17:54;121735.40;;;-218.57;0.00
73518;BME280;61766;60.318;25.044;2024-01-27T09:20:20;121735.40;;;-218.57;0.00
73518;BME280;61766;60.318;25.044;2024-01-27T09:22:45;121735.40;;;-218.33;0.00
73518;BME280;61766;60.318;25.044;2024-01-27T09:25:11;121735.40;;;-218.33;0.00
73518;BME280;61766;60.318;25.044;2024-01-27T09:27:36;121735.40;;;-218.57;0.00
73518;BME280;61766;60.318;25.044;2024-01-27T09:30:01;121735.40;;;-218.09;0.00
73518;BME280;61766;60.318;25.044;2024-01-27T09:32:27;121735.40;;;-218.57;0.00
73518;BME280;61766;60.318;25.044;2024-01-27T09:34:52;121735.40;;;-218.57;0.00
73518;BME280;61766;60.318;25.044;2024-01-27T09:37:18;121735.40;;;-218.81;0.00
73518;BME280;61766;60.318;25.044;2024-01-27T09:39:43;121735.40;;;-219.05;0.00
73518;BME280;61766;60.318;25.044;2024-01-27T09:42:11;121735.40;;;-219.05;0.00
73518;BME280;61766;60.318;25.044;2024-01-27T09:44:36;121735.40;;;-218.81;0.00
73518;BME280;61766;60.318;25.044;2024-01-27T09:47:00;121735.40;;;-218.57;0.00
73518;BME280;61766;60.318;25.044;2024-01-27T09:49:27;121735.40;;;-218.57;0.00
73518;BME280;61766;60.318;25.044;2024-01-27T09:51:51;121735.40;;;-218.57;0.00
73518;BME280;61766;60.318;25.044;2024-01-27T09:54:17;121735.40;;;-219.05;0.00
73518;BME280;61766;60.318;25.044;2024-01-27T09:56:43;121735.40;;;-218.57;0.00
73518;BME280;61766;60.318;25.044;2024-01-27T09:59:09;121735.40;;;-218.57;0.00
73518;BME280;61766;60.318;25.044;2024-01-27T10:01:33;121735.40;;;-218.57;0.00
73518;BME280;61766;60.318;25.044;2024-01-27T10:04:00;121735.40;;;-219.05;0.00
73518;BME280;61766;60.318;25.044;2024-01-27T10:06:24;121735.40;;;-219.05;0.00
73518;BME280;61766;60.318;25.044;2024-01-27T10:08:55;121735.40;;;-219.05;0.00
73518;BME280;61766;60.318;25.044;2024-01-27T10:11:16;121735.40;;;-218.57;0.00
73518;BME280;61766;60.318;25.044;2024-01-27T10:13:41;121735.40;;;-218.81;0.00
73518;BME280;61766;60.318;25.044;2024-01-27T10:16:07;121735.40;;;-218.57;0.00
73518;BME280;61766;60.318;25.044;2024-01-27T10:18:31;121735.40;;;-218.33;0.00
73518;BME280;61766;60.318;25.044;2024-01-27T10:20:57;121735.40;;;-218.57;0.00
73518;BME280;61766;60.318;25.044;2024-01-27T10:23:22;121735.40;;;-218.33;0.00
73518;BME280;61766;60.318;25.044;2024-01-27T10:25:48;121735.40;;;-218.57;0.00
73518;BME280;61766;60.318;25.044;2024-01-27T10:28:13;121735.40;;;-218.57;0.00
73518;BME280;61766;60.318;25.044;2024-01-27T10:30:39;121735.40;;;-218.33;0.00
73518;BME280;61766;60.318;25.044;2024-01-27T10:33:04;121735.40;;;-218.33;0.00
73518;BME280;61766;60.318;25.044;2024-01-27T10:35:29;121735.40;;;-218.09;0.00
73518;BME280;61766;60.318;25.044;2024-01-27T10:37:55;121735.40;;;-218.09;0.00
73518;BME280;61766;60.318;25.044;2024-01-27T10:40:20;121735.40;;;-218.09;0.00
73518;BME280;61766;60.318;25.044;2024-01-27T10:42:46;121735.40;;;-218.09;0.00
73518;BME280;61766;60.318;25.044;2024-01-27T10:45:11;121735.40;;;-218.09;0.00
73518;BME280;61766;60.318;25.044;2024-01-27T10:47:36;121735.40;;;-218.33;0.00
73518;BME280;61766;60.318;25.044;2024-01-27T10:50:02;121735.40;;;-218.09;0.00
73518;BME280;61766;60.318;25.044;2024-01-27T10:52:28;121735.40;;;-218.09;0.00
73518;BME280;61766;60.318;25.044;2024-01-27T10:54:55;121735.40;;;-218.09;0.00
73518;BME280;61766;60.318;25.044;2024-01-27T10:57:18;121735.40;;;-218.33;0.00
73518;BME280;61766;60.318;25.044;2024-01-27T10:59:44;121735.40;;;-218.09;0.00
73518;BME280;61766;60.318;25.044;2024-01-27T11:02:13;121735.40;;;-218.09;0.00
73518;BME280;61766;60.318;25.044;2024-01-27T11:04:34;121735.40;;;-218.09;0.00
73518;BME280;61766;60.318;25.044;2024-01-27T11:07:00;121735.40;;;-218.33;0.00
73518;BME280;61766;60.318;25.044;2024-01-27T11:09:25;121735.40;;;-218.33;0.00
73518;BME280;61766;60.318;25.044;2024-01-27T11:11:50;121735.40;;;-218.33;0.00
73518;BME280;61766;60.318;25.044;2024-01-27T11:14:15;121735.40;;;-218.33;0.00
73518;BME280;61766;60.318;25.044;2024-01-27T11:16:40;121735.40;;;-218.09;0.00
73518;BME280;61766;60.318;25.044;2024-01-27T11:19:05;121735.40;;;-217.85;0.00
73518;BME280;61766;60.318;25.044;2024-01-27T11:21:31;121735.40;;;-218.33;0.00
73518;BME280;61766;60.318;25.044;2024-01-27T11:23:57;121735.40;;;-219.77;0.00
73518;BME280;61766;60.318;25.044;2024-01-27T11:26:23;121735.40;;;-218.33;0.00
73518;BME280;61766;60.318;25.044;2024-01-27T11:28:47;121735.40;;;-218.09;0.00
73518;BME280;61766;60.318;25.044;2024-01-27T11:31:13;121735.40;;;-218.09;0.00
73518;BME280;61766;60.318;25.044;2024-01-27T11:33:43;121735.40;;;-217.85;0.00
73518;BME280;61766;60.318;25.044;2024-01-27T11:36:04;121735.40;;;-218.09;0.00
73518;BME280;61766;60.318;25.044;2024-01-27T11:38:29;121735.40;;;-217.37;0.00
73518;BME280;61766;60.318;25.044;2024-01-27T11:40:54;121735.40;;;-217.85;0.00
73518;BME280;61766;60.318;25.044;2024-01-27T11:43:20;121735.40;;;-217.61;0.00
73518;BME280;61766;60.318;25.044;2024-01-27T11:48:10;121735.40;;;-217.37;0.00
73518;BME280;61766;60.318;25.044;2024-01-27T11:50:35;121735.40;;;-217.85;0.00
73518;BME280;61766;60.318;25.044;2024-01-27T11:53:01;121735.40;;;-217.85;0.00
73518;BME280;61766;60.318;25.044;2024-01-27T11:55:26;121735.40;;;-217.61;0.00
73518;BME280;61766;60.318;25.044;2024-01-27T11:57:51;121735.40;;;-217.61;0.00
73518;BME280;61766;60.318;25.044;2024-01-27T12:00:17;121735.40;;;-217.61;0.00
73518;BME280;61766;60.318;25.044;2024-01-27T12:02:42;121735.40;;;-217.85;0.00
73518;BME280;61766;60.318;25.044;2024-01-27T12:05:08;121735.40;;;-218.09;0.00
73518;BME280;61766;60.318;25.044;2024-01-27T12:07:33;121735.40;;;-217.61;0.00
73518;BME280;61766;60.318;25.044;2024-01-27T12:09:58;121735.40;;;-218.09;0.00
73518;BME280;61766;60.318;25.044;2024-01-27T12:12:24;121735.40;;;-217.85;0.00
73518;BME280;61766;60.318;25.044;2024-01-27T12:14:51;121735.40;;;-217.61;0.00
73518;BME280;61766;60.318;25.044;2024-01-27T12:17:15;121735.40;;;-217.85;0.00
73518;BME280;61766;60.318;25.044;2024-01-27T12:19:45;121735.40;;;-218.33;0.00
73518;BME280;61766;60.318;25.044;2024-01-27T12:22:19;121735.40;;;-217.85;0.00